CDT,Max TemperatureF,Mean TemperatureF,Min TemperatureF,Max Dew PointF,MeanDew PointF,Min DewpointF,Max Humidity, Mean Humidity, Min Humidity, Max Sea Level PressureIn, Mean Sea Level PressureIn, Min Sea Level PressureIn, Max VisibilityMiles, Mean VisibilityMiles, Min VisibilityMiles, Max Wind SpeedMPH, Mean Wind SpeedMPH, Max Gust SpeedMPH,PrecipitationIn, CloudCover, Events, WindDirDegrees
2012-10-1,78,70,62,68,65,61,94,84,65,29.74,29.63,29.56,10,9,2,12,5,21,1.01,7,Rain,148
2012-10-2,68,64,59,63,59,55,94,86,68,30.02,29.83,29.65,10,7,1,12,3,21,0.01,8,Rain,228
2012-10-3,71,62,53,57,54,48,94,80,43,30.21,30.12,30.01,10,7,0,5,0,,0.00,4,Fog,231
2012-10-4,78,64,50,59,52,46,94,76,32,30.30,30.25,30.21,10,6,0,6,1,,0.00,2,Fog,4
2012-10-5,78,64,50,57,53,48,94,74,36,30.23,30.14,30.03,10,7,2,10,1,,0.00,1,,226
2012-10-6,64,58,51,61,53,46,94,85,72,30.08,30.04,30.00,10,8,3,12,2,,0.00,6,Rain-Thunderstorm,2
2012-10-7,59,52,46,46,42,36,93,72,42,30.17,30.10,30.03,10,10,4,13,4,18,0.00,5,Rain,3
2012-10-8,53,50,46,46,44,41,87,82,72,30.19,30.14,30.08,10,10,2,8,2,16,0.04,7,Rain,32
2012-10-9,66,55,44,48,45,43,93,76,46,30.16,30.10,30.05,10,9,4,7,1,,0.00,4,,153
2012-10-10,69,56,42,52,48,41,94,79,49,30.21,30.14,30.07,10,8,0,10,1,16,0.00,4,Fog,309
2012-10-11,71,55,39,52,44,37,93,71,29,30.30,30.25,30.20,10,7,0,8,1,,0.00,4,Fog,249
2012-10-12,71,64,57,61,57,52,94,82,68,30.30,30.25,30.21,10,9,4,10,1,17,0.14,7,Rain,323
2012-10-13,77,66,55,59,55,50,94,68,47,30.33,30.25,30.19,10,9,1,12,4,18,0.00,4,,115
2012-10-14,73,66,60,61,57,50,83,73,61,30.22,30.10,29.94,10,10,7,14,7,23,0.00,5,Thunderstorm,184
2012-10-15,73,58,44,63,50,36,94,69,27,30.00,29.96,29.92,10,8,0,15,3,21,0.08,3,Fog-Rain-Thunderstorm,313
2012-10-16,71,55,39,52,44,37,94,73,29,30.03,29.96,29.89,10,8,0,7,0,,0.00,0,Fog,47
2012-10-17,73,58,44,52,44,34,100,63,23,29.94,29.86,29.75,10,9,3,13,2,18,0.00,0,,185
2012-10-18,73,58,44,59,50,39,93,69,33,29.85,29.79,29.74,10,10,3,16,4,21,0.44,4,Rain-Thunderstorm,232
2012-10-19,68,52,35,45,36,23,100,63,18,29.85,29.80,29.74,10,9,5,28,3,37,0.00,2,,236
2012-10-20,66,52,39,46,41,36,93,71,40,30.02,29.94,29.85,10,10,7,12,2,18,0.00,1,,285
2012-10-21,73,56,39,50,43,37,93,73,31,30.17,30.12,30.02,10,10,7,5,0,,0.00,0,,30
2012-10-22,78,61,44,52,46,41,93,65,28,30.23,30.17,30.12,10,10,7,7,1,,0.00,1,,200
2012-10-23,77,60,44,52,47,41,94,69,28,30.20,30.14,30.10,10,9,5,6,1,,0.00,0,,221
2012-10-24,78,61,44,54,48,43,100,71,30,30.19,30.13,30.07,10,9,5,6,1,,0.00,0,,140
2012-10-25,78,63,48,55,51,46,94,72,36,30.11,30.07,30.02,10,9,7,8,2,,0.00,1,,106
2012-10-26,80,68,55,59,54,48,94,66,34,30.07,30.00,29.92,10,10,7,9,2,,0.00,3,,152
2012-10-27,57,52,48,48,44,41,87,76,63,29.99,29.94,29.89,10,10,7,15,7,21,0.00,8,Rain,357
2012-10-28,53,50,44,43,37,30,76,63,47,29.99,29.92,29.86,10,10,10,17,9,29,0.00,7,,353
2012-10-29,51,44,37,32,26,18,75,51,28,30.02,29.96,29.85,10,10,10,18,8,28,0.00,0,,336
2012-10-30,53,43,32,28,21,14,87,42,21,29.86,29.80,29.76,10,10,10,18,10,32,0.00,0,,294
2012-10-31,60,44,28,32,25,14,93,60,16,29.95,29.90,29.86,10,10,10,16,3,22,0.00,0,,268